sensor_id;sensor_type;location;lat;lon;timestamp;temperature;humidity
7411;DHT22;3747;48.628;9.058;2023-04-24T00:01:19;8.80;99.90
7411;DHT22;3747;48.628;9.058;2023-04-24T00:03:46;8.80;99.90
7411;DHT22;3747;48.628;9.058;2023-04-24T00:06:12;8.90;99.90
7411;DHT22;3747;48.628;9.058;2023-04-24T00:08:39;8.90;99.90
7411;DHT22;3747;48.628;9.058;2023-04-24T00:11:06;8.90;99.90
7411;DHT22;3747;48.628;9.058;2023-04-24T00:13:34;8.90;99.90
7411;DHT22;3747;48.628;9.058;2023-04-24T00:16:01;8.90;99.90
7411;DHT22;3747;48.628;9.058;2023-04-24T00:18:27;8.90;99.90
7411;DHT22;3747;48.628;9.058;2023-04-24T00:20:54;9.00;99.90
7411;DHT22;3747;48.628;9.058;2023-04-24T00:23:21;9.00;99.90
7411;DHT22;3747;48.628;9.058;2023-04-24T00:25:47;9.10;99.90
7411;DHT22;3747;48.628;9.058;2023-04-24T00:28:14;9.10;99.90
7411;DHT22;3747;48.628;9.058;2023-04-24T00:30:42;9.20;99.90
7411;DHT22;3747;48.628;9.058;2023-04-24T00:33:09;9.20;99.90
7411;DHT22;3747;48.628;9.058;2023-04-24T00:35:35;9.20;99.90
7411;DHT22;3747;48.628;9.058;2023-04-24T00:38:02;9.30;99.90
7411;DHT22;3747;48.628;9.058;2023-04-24T00:40:29;9.30;99.90
7411;DHT22;3747;48.628;9.058;2023-04-24T00:42:56;9.30;99.90
7411;DHT22;3747;48.628;9.058;2023-04-24T00:45:23;9.30;99.90
7411;DHT22;3747;48.628;9.058;2023-04-24T00:47:52;9.40;99.90
7411;DHT22;3747;48.628;9.058;2023-04-24T00:50:21;9.40;99.90
7411;DHT22;3747;48.628;9.058;2023-04-24T00:52:48;9.50;99.90
7411;DHT22;3747;48.628;9.058;2023-04-24T00:55:15;9.50;99.90
7411;DHT22;3747;48.628;9.058;2023-04-24T00:57:42;9.60;99.90
7411;DHT22;3747;48.628;9.058;2023-04-24T01:00:10;9.50;99.90
7411;DHT22;3747;48.628;9.058;2023-04-24T01:02:38;9.50;99.90
7411;DHT22;3747;48.628;9.058;2023-04-24T01:05:11;9.50;99.90
7411;DHT22;3747;48.628;9.058;2023-04-24T01:07:39;9.40;99.90
7411;DHT22;3747;48.628;9.058;2023-04-24T01:10:09;9.40;99.90
7411;DHT22;3747;48.628;9.058;2023-04-24T01:12:37;9.40;99.90
7411;DHT22;3747;48.628;9.058;2023-04-24T01:15:04;9.40;99.90
7411;DHT22;3747;48.628;9.058;2023-04-24T01:17:31;9.40;99.90
7411;DHT22;3747;48.628;9.058;2023-04-24T01:19:58;9.40;99.90
7411;DHT22;3747;48.628;9.058;2023-04-24T01:22:27;9.30;99.90
7411;DHT22;3747;48.628;9.058;2023-04-24T01:24:54;9.30;99.90
7411;DHT22;3747;48.628;9.058;2023-04-24T01:27:21;9.40;99.90
7411;DHT22;3747;48.628;9.058;2023-04-24T01:29:47;9.30;99.90
7411;DHT22;3747;48.628;9.058;2023-04-24T01:32:15;9.30;99.90
7411;DHT22;3747;48.628;9.058;2023-04-24T01:34:42;9.30;99.90
7411;DHT22;3747;48.628;9.058;2023-04-24T01:37:09;9.20;99.90
7411;DHT22;3747;48.628;9.058;2023-04-24T01:39:37;9.20;99.90
7411;DHT22;3747;48.628;9.058;2023-04-24T01:42:04;9.20;99.90
7411;DHT22;3747;48.628;9.058;2023-04-24T01:44:33;9.20;99.90
7411;DHT22;3747;48.628;9.058;2023-04-24T01:47:00;9.20;99.90
7411;DHT22;3747;48.628;9.058;2023-04-24T01:49:27;9.20;99.90
7411;DHT22;3747;48.628;9.058;2023-04-24T01:51:54;9.20;99.90
7411;DHT22;3747;48.628;9.058;2023-04-24T01:54:21;9.20;99.90
7411;DHT22;3747;48.628;9.058;2023-04-24T01:56:49;9.20;99.90
7411;DHT22;3747;48.628;9.058;2023-04-24T01:59:17;9.10;99.90
7411;DHT22;3747;48.628;9.058;2023-04-24T02:01:43;9.10;99.90
7411;DHT22;3747;48.628;9.058;2023-04-24T02:04:10;9.00;99.90
7411;DHT22;3747;48.628;9.058;2023-04-24T02:06:37;8.80;99.90
7411;DHT22;3747;48.628;9.058;2023-04-24T02:09:03;8.70;99.90
7411;DHT22;3747;48.628;9.058;2023-04-24T02:11:30;8.60;99.90
7411;DHT22;3747;48.628;9.058;2023-04-24T02:13:58;8.60;99.90
7411;DHT22;3747;48.628;9.058;2023-04-24T02:16:25;8.40;99.90
7411;DHT22;3747;48.628;9.058;2023-04-24T02:18:52;8.40;99.90
7411;DHT22;3747;48.628;9.058;2023-04-24T02:21:18;8.40;99.90
7411;DHT22;3747;48.628;9.058;2023-04-24T02:23:45;8.40;99.90
7411;DHT22;3747;48.628;9.058;2023-04-24T02:26:12;8.40;99.90
7411;DHT22;3747;48.628;9.058;2023-04-24T02:28:38;8.40;99.90
7411;DHT22;3747;48.628;9.058;2023-04-24T02:31:06;8.40;99.90
7411;DHT22;3747;48.628;9.058;2023-04-24T02:33:33;8.50;99.90
7411;DHT22;3747;48.628;9.058;2023-04-24T02:36:00;8.50;99.90
7411;DHT22;3747;48.628;9.058;2023-04-24T02:38:28;8.50;99.90
7411;DHT22;3747;48.628;9.058;2023-04-24T02:40:55;8.50;99.90
7411;DHT22;3747;48.628;9.058;2023-04-24T02:43:21;8.40;99.90
7411;DHT22;3747;48.628;9.058;2023-04-24T02:45:48;8.40;99.90
7411;DHT22;3747;48.628;9.058;2023-04-24T02:48:17;8.50;99.90
7411;DHT22;3747;48.628;9.058;2023-04-24T02:50:44;8.50;99.90
7411;DHT22;3747;48.628;9.058;2023-04-24T02:53:10;8.40;99.90
7411;DHT22;3747;48.628;9.058;2023-04-24T02:55:37;8.50;99.90
7411;DHT22;3747;48.628;9.058;2023-04-24T02:58:04;8.50;99.90
7411;DHT22;3747;48.628;9.058;2023-04-24T03:00:31;8.50;99.90
7411;DHT22;3747;48.628;9.058;2023-04-24T03:02:59;8.50;99.90
7411;DHT22;3747;48.628;9.058;2023-04-24T03:05:27;8.50;99.90
7411;DHT22;3747;48.628;9.058;2023-04-24T03:07:53;8.50;99.90
7411;DHT22;3747;48.628;9.058;2023-04-24T03:10:20;8.50;99.90
7411;DHT22;3747;48.628;9.058;2023-04-24T03:12:47;8.40;99.90
7411;DHT22;3747;48.628;9.058;2023-04-24T03:15:14;8.40;99.90
7411;DHT22;3747;48.628;9.058;2023-04-24T03:17:41;8.40;99.90
7411;DHT22;3747;48.628;9.058;2023-04-24T03:20:09;8.30;99.90
7411;DHT22;3747;48.628;9.058;2023-04-24T03:22:37;8.30;99.90
7411;DHT22;3747;48.628;9.058;2023-04-24T03:25:04;8.30;99.90
7411;DHT22;3747;48.628;9.058;2023-04-24T03:27:33;8.30;99.90
7411;DHT22;3747;48.628;9.058;2023-04-24T03:30:00;8.30;99.90
7411;DHT22;3747;48.628;9.058;2023-04-24T03:32:27;8.30;99.90
7411;DHT22;3747;48.628;9.058;2023-04-24T03:34:54;8.20;99.90
7411;DHT22;3747;48.628;9.058;2023-04-24T03:37:20;8.20;99.90
7411;DHT22;3747;48.628;9.058;2023-04-24T03:39:48;8.10;99.90
7411;DHT22;3747;48.628;9.058;2023-04-24T03:42:15;8.00;99.90
7411;DHT22;3747;48.628;9.058;2023-04-24T03:44:42;8.00;99.90
7411;DHT22;3747;48.628;9.058;2023-04-24T03:47:09;7.80;99.90
7411;DHT22;3747;48.628;9.058;2023-04-24T03:49:35;7.70;99.90
7411;DHT22;3747;48.628;9.058;2023-04-24T03:52:02;7.60;99.90
7411;DHT22;3747;48.628;9.058;2023-04-24T03:54:29;7.50;99.90
7411;DHT22;3747;48.628;9.058;2023-04-24T03:56:57;7.50;99.90
7411;DHT22;3747;48.628;9.058;2023-04-24T03:59:23;7.50;99.90
7411;DHT22;3747;48.628;9.058;2023-04-24T04:01:50;7.50;99.90
7411;DHT22;3747;48.628;9.058;2023-04-24T04:04:17;7.50;99.90
7411;DHT22;3747;48.628;9.058;2023-04-24T04:06:43;7.50;99.90
7411;DHT22;3747;48.628;9.058;2023-04-24T04:09:11;7.40;99.90
7411;DHT22;3747;48.628;9.058;2023-04-24T04:11:38;7.50;99.90
7411;DHT22;3747;48.628;9.058;2023-04-24T04:14:06;7.70;99.90
7411;DHT22;3747;48.628;9.058;2023-04-24T04:16:33;7.80;99.90
7411;DHT22;3747;48.628;9.058;2023-04-24T04:19:01;7.90;99.90
7411;DHT22;3747;48.628;9.058;2023-04-24T04:21:28;8.00;99.90
7411;DHT22;3747;48.628;9.058;2023-04-24T04:23:56;8.00;99.90
7411;DHT22;3747;48.628;9.058;2023-04-24T04:26:23;8.10;99.90
7411;DHT22;3747;48.628;9.058;2023-04-24T04:28:51;8.10;99.90
7411;DHT22;3747;48.628;9.058;2023-04-24T04:31:19;8.10;99.90
7411;DHT22;3747;48.628;9.058;2023-04-24T04:33:46;8.20;99.90
7411;DHT22;3747;48.628;9.058;2023-04-24T04:36:13;8.20;99.90
7411;DHT22;3747;48.628;9.058;2023-04-24T04:38:39;8.30;99.90
7411;DHT22;3747;48.628;9.058;2023-04-24T04:41:08;8.30;99.90
7411;DHT22;3747;48.628;9.058;2023-04-24T04:43:35;8.30;99.90
7411;DHT22;3747;48.628;9.058;2023-04-24T04:46:01;8.10;99.90
7411;DHT22;3747;48.628;9.058;2023-04-24T04:48:30;7.70;99.90
7411;DHT22;3747;48.628;9.058;2023-04-24T04:50:57;7.40;99.90
7411;DHT22;3747;48.628;9.058;2023-04-24T04:53:23;7.30;99.90
7411;DHT22;3747;48.628;9.058;2023-04-24T04:55:51;7.20;99.90
7411;DHT22;3747;48.628;9.058;2023-04-24T04:58:17;7.10;99.90
7411;DHT22;3747;48.628;9.058;2023-04-24T05:00:44;7.10;99.90
7411;DHT22;3747;48.628;9.058;2023-04-24T05:03:11;7.10;99.90
7411;DHT22;3747;48.628;9.058;2023-04-24T05:05:39;7.10;99.90
7411;DHT22;3747;48.628;9.058;2023-04-24T05:08:06;7.10;99.90
7411;DHT22;3747;48.628;9.058;2023-04-24T05:10:33;7.10;99.90
7411;DHT22;3747;48.628;9.058;2023-04-24T05:13:00;7.10;99.90
7411;DHT22;3747;48.628;9.058;2023-04-24T05:15:26;7.10;99.90
7411;DHT22;3747;48.628;9.058;2023-04-24T05:17:53;7.10;99.90
7411;DHT22;3747;48.628;9.058;2023-04-24T05:20:20;7.10;99.90
7411;DHT22;3747;48.628;9.058;2023-04-24T05:22:48;7.20;99.90
7411;DHT22;3747;48.628;9.058;2023-04-24T05:25:15;7.20;99.90
7411;DHT22;3747;48.628;9.058;2023-04-24T05:27:42;7.20;99.90
7411;DHT22;3747;48.628;9.058;2023-04-24T05:30:09;7.30;99.90
7411;DHT22;3747;48.628;9.058;2023-04-24T05:32:36;7.30;99.90
7411;DHT22;3747;48.628;9.058;2023-04-24T05:35:03;7.40;99.90
7411;DHT22;3747;48.628;9.058;2023-04-24T05:37:29;7.40;99.90
7411;DHT22;3747;48.628;9.058;2023-04-24T05:39:57;7.50;99.90
7411;DHT22;3747;48.628;9.058;2023-04-24T05:42:24;7.60;99.90
7411;DHT22;3747;48.628;9.058;2023-04-24T05:44:51;7.60;99.90
7411;DHT22;3747;48.628;9.058;2023-04-24T05:47:19;7.60;99.90
7411;DHT22;3747;48.628;9.058;2023-04-24T05:49:47;7.60;99.90
7411;DHT22;3747;48.628;9.058;2023-04-24T05:52:13;7.60;99.90
7411;DHT22;3747;48.628;9.058;2023-04-24T05:54:40;7.70;99.90
7411;DHT22;3747;48.628;9.058;2023-04-24T05:57:08;7.70;99.90
7411;DHT22;3747;48.628;9.058;2023-04-24T05:59:36;7.80;99.90
7411;DHT22;3747;48.628;9.058;2023-04-24T06:02:03;7.80;99.90
7411;DHT22;3747;48.628;9.058;2023-04-24T06:04:31;7.80;99.90
7411;DHT22;3747;48.628;9.058;2023-04-24T06:06:58;7.80;99.90
7411;DHT22;3747;48.628;9.058;2023-04-24T06:09:25;7.70;99.90
7411;DHT22;3747;48.628;9.058;2023-04-24T06:11:52;7.70;99.90
7411;DHT22;3747;48.628;9.058;2023-04-24T06:14:20;7.60;99.90
7411;DHT22;3747;48.628;9.058;2023-04-24T06:16:47;7.70;99.90
7411;DHT22;3747;48.628;9.058;2023-04-24T06:19:13;8.20;99.90
7411;DHT22;3747;48.628;9.058;2023-04-24T06:21:40;8.80;99.90
7411;DHT22;3747;48.628;9.058;2023-04-24T06:24:07;9.30;99.90
7411;DHT22;3747;48.628;9.058;2023-04-24T06:26:33;9.90;99.90
7411;DHT22;3747;48.628;9.058;2023-04-24T06:29:00;10.80;99.90
7411;DHT22;3747;48.628;9.058;2023-04-24T06:31:28;11.20;99.90
7411;DHT22;3747;48.628;9.058;2023-04-24T06:33:55;11.70;99.90
7411;DHT22;3747;48.628;9.058;2023-04-24T06:36:21;12.40;99.90
7411;DHT22;3747;48.628;9.058;2023-04-24T06:38:48;12.40;99.90
7411;DHT22;3747;48.628;9.058;2023-04-24T06:41:15;12.80;99.90
7411;DHT22;3747;48.628;9.058;2023-04-24T06:43:42;12.90;99.90
7411;DHT22;3747;48.628;9.058;2023-04-24T06:46:09;12.90;99.90
7411;DHT22;3747;48.628;9.058;2023-04-24T06:48:38;12.70;99.90
7411;DHT22;3747;48.628;9.058;2023-04-24T06:51:05;12.60;99.90
7411;DHT22;3747;48.628;9.058;2023-04-24T06:53:32;11.90;99.90
7411;DHT22;3747;48.628;9.058;2023-04-24T06:55:58;11.30;99.90
7411;DHT22;3747;48.628;9.058;2023-04-24T06:58:26;10.70;99.90
7411;DHT22;3747;48.628;9.058;2023-04-24T07:00:53;10.40;99.90
7411;DHT22;3747;48.628;9.058;2023-04-24T07:03:19;10.00;99.90
7411;DHT22;3747;48.628;9.058;2023-04-24T07:05:48;9.80;99.90
7411;DHT22;3747;48.628;9.058;2023-04-24T07:08:15;9.50;99.90
7411;DHT22;3747;48.628;9.058;2023-04-24T07:10:43;9.40;99.90
7411;DHT22;3747;48.628;9.058;2023-04-24T07:13:10;9.30;99.90
7411;DHT22;3747;48.628;9.058;2023-04-24T07:15:37;9.20;99.90
7411;DHT22;3747;48.628;9.058;2023-04-24T07:18:04;8.90;99.90
7411;DHT22;3747;48.628;9.058;2023-04-24T07:20:33;8.00;99.90
7411;DHT22;3747;48.628;9.058;2023-04-24T07:23:02;7.50;99.90
7411;DHT22;3747;48.628;9.058;2023-04-24T07:25:28;7.50;99.90
7411;DHT22;3747;48.628;9.058;2023-04-24T07:27:57;7.80;99.90
7411;DHT22;3747;48.628;9.058;2023-04-24T07:30:23;8.20;99.90
7411;DHT22;3747;48.628;9.058;2023-04-24T07:32:50;8.70;99.90
7411;DHT22;3747;48.628;9.058;2023-04-24T07:35:17;9.50;99.90
7411;DHT22;3747;48.628;9.058;2023-04-24T07:37:43;10.20;99.90
7411;DHT22;3747;48.628;9.058;2023-04-24T07:40:24;10.50;99.90
7411;DHT22;3747;48.628;9.058;2023-04-24T07:42:51;10.50;99.90
7411;DHT22;3747;48.628;9.058;2023-04-24T07:45:18;10.60;99.90
7411;DHT22;3747;48.628;9.058;2023-04-24T07:47:50;10.30;99.90
7411;DHT22;3747;48.628;9.058;2023-04-24T07:50:17;10.00;99.90
7411;DHT22;3747;48.628;9.058;2023-04-24T07:52:46;9.80;99.90
7411;DHT22;3747;48.628;9.058;2023-04-24T07:55:13;10.10;99.90
7411;DHT22;3747;48.628;9.058;2023-04-24T07:57:41;10.20;99.90
7411;DHT22;3747;48.628;9.058;2023-04-24T08:00:08;10.30;99.90
7411;DHT22;3747;48.628;9.058;2023-04-24T08:02:36;10.50;99.90
7411;DHT22;3747;48.628;9.058;2023-04-24T08:05:02;10.30;99.90
7411;DHT22;3747;48.628;9.058;2023-04-24T08:07:31;10.10;99.90
7411;DHT22;3747;48.628;9.058;2023-04-24T08:09:58;10.00;99.90
7411;DHT22;3747;48.628;9.058;2023-04-24T08:12:25;9.90;99.90
7411;DHT22;3747;48.628;9.058;2023-04-24T08:14:53;10.00;99.90
7411;DHT22;3747;48.628;9.058;2023-04-24T08:17:20;9.90;99.90
7411;DHT22;3747;48.628;9.058;2023-04-24T08:19:47;9.80;99.90
7411;DHT22;3747;48.628;9.058;2023-04-24T08:22:14;9.80;99.90
7411;DHT22;3747;48.628;9.058;2023-04-24T08:24:46;9.80;99.90
7411;DHT22;3747;48.628;9.058;2023-04-24T08:27:12;9.70;99.90
7411;DHT22;3747;48.628;9.058;2023-04-24T08:29:39;9.70;99.90
7411;DHT22;3747;48.628;9.058;2023-04-24T08:32:07;10.20;99.90
7411;DHT22;3747;48.628;9.058;2023-04-24T08:34:34;10.20;99.90
7411;DHT22;3747;48.628;9.058;2023-04-24T08:37:00;10.60;99.90
7411;DHT22;3747;48.628;9.058;2023-04-24T08:39:27;10.80;99.90
7411;DHT22;3747;48.628;9.058;2023-04-24T08:41:55;10.90;99.90
7411;DHT22;3747;48.628;9.058;2023-04-24T08:44:22;11.40;99.90
7411;DHT22;3747;48.628;9.058;2023-04-24T08:46:49;12.30;99.90
7411;DHT22;3747;48.628;9.058;2023-04-24T08:49:18;12.70;99.90
7411;DHT22;3747;48.628;9.058;2023-04-24T08:51:45;12.40;99.90
7411;DHT22;3747;48.628;9.058;2023-04-24T08:54:13;11.40;99.90
7411;DHT22;3747;48.628;9.058;2023-04-24T08:56:40;11.00;99.90
7411;DHT22;3747;48.628;9.058;2023-04-24T08:59:10;11.30;99.90
7411;DHT22;3747;48.628;9.058;2023-04-24T09:01:38;12.10;99.90
7411;DHT22;3747;48.628;9.058;2023-04-24T09:04:07;12.10;99.90
7411;DHT22;3747;48.628;9.058;2023-04-24T09:06:36;12.70;99.90
7411;DHT22;3747;48.628;9.058;2023-04-24T09:09:03;12.70;99.90
7411;DHT22;3747;48.628;9.058;2023-04-24T09:11:31;12.40;99.90
7411;DHT22;3747;48.628;9.058;2023-04-24T09:13:58;12.90;99.90
7411;DHT22;3747;48.628;9.058;2023-04-24T09:16:26;13.40;99.90
7411;DHT22;3747;48.628;9.058;2023-04-24T09:18:53;13.50;99.90
7411;DHT22;3747;48.628;9.058;2023-04-24T09:21:21;12.70;99.90
7411;DHT22;3747;48.628;9.058;2023-04-24T09:23:59;11.80;99.90
7411;DHT22;3747;48.628;9.058;2023-04-24T09:26:29;11.50;99.90
7411;DHT22;3747;48.628;9.058;2023-04-24T09:28:58;11.70;99.90
7411;DHT22;3747;48.628;9.058;2023-04-24T09:31:27;11.80;99.90
7411;DHT22;3747;48.628;9.058;2023-04-24T09:33:55;12.00;99.90
7411;DHT22;3747;48.628;9.058;2023-04-24T09:36:27;11.80;99.90
7411;DHT22;3747;48.628;9.058;2023-04-24T09:38:59;11.40;99.90
7411;DHT22;3747;48.628;9.058;2023-04-24T09:41:26;11.20;99.90
7411;DHT22;3747;48.628;9.058;2023-04-24T09:43:53;11.90;99.90
7411;DHT22;3747;48.628;9.058;2023-04-24T09:46:20;12.00;99.90
7411;DHT22;3747;48.628;9.058;2023-04-24T09:48:48;12.10;99.90
7411;DHT22;3747;48.628;9.058;2023-04-24T09:51:14;12.10;99.90
7411;DHT22;3747;48.628;9.058;2023-04-24T09:53:45;12.60;99.90
7411;DHT22;3747;48.628;9.058;2023-04-24T09:56:13;12.20;99.90
7411;DHT22;3747;48.628;9.058;2023-04-24T09:58:40;11.70;99.90
7411;DHT22;3747;48.628;9.058;2023-04-24T10:01:07;11.60;99.90
7411;DHT22;3747;48.628;9.058;2023-04-24T10:03:36;12.40;99.90
7411;DHT22;3747;48.628;9.058;2023-04-24T10:06:03;12.90;99.90
7411;DHT22;3747;48.628;9.058;2023-04-24T10:08:34;13.20;99.90
7411;DHT22;3747;48.628;9.058;2023-04-24T10:11:01;12.70;99.90
7411;DHT22;3747;48.628;9.058;2023-04-24T10:13:30;12.60;99.90
7411;DHT22;3747;48.628;9.058;2023-04-24T10:15:59;12.90;99.90
7411;DHT22;3747;48.628;9.058;2023-04-24T10:18:27;12.60;99.90
7411;DHT22;3747;48.628;9.058;2023-04-24T10:20:54;12.60;99.90
7411;DHT22;3747;48.628;9.058;2023-04-24T10:23:21;12.30;99.90
7411;DHT22;3747;48.628;9.058;2023-04-24T10:25:49;12.00;99.90
7411;DHT22;3747;48.628;9.058;2023-04-24T10:28:18;12.00;99.90
7411;DHT22;3747;48.628;9.058;2023-04-24T10:30:47;12.10;99.90
7411;DHT22;3747;48.628;9.058;2023-04-24T10:33:16;12.10;99.90
7411;DHT22;3747;48.628;9.058;2023-04-24T10:35:45;12.40;99.90
7411;DHT22;3747;48.628;9.058;2023-04-24T10:38:17;12.40;99.90
7411;DHT22;3747;48.628;9.058;2023-04-24T10:40:44;11.90;99.90
7411;DHT22;3747;48.628;9.058;2023-04-24T10:43:16;11.60;99.90
7411;DHT22;3747;48.628;9.058;2023-04-24T10:46:00;11.50;99.90
7411;DHT22;3747;48.628;9.058;2023-04-24T10:48:27;11.80;99.90
7411;DHT22;3747;48.628;9.058;2023-04-24T10:50:54;12.00;99.90
7411;DHT22;3747;48.628;9.058;2023-04-24T10:53:30;12.10;99.90
7411;DHT22;3747;48.628;9.058;2023-04-24T10:55:58;11.50;99.90
7411;DHT22;3747;48.628;9.058;2023-04-24T10:58:37;10.90;99.90
7411;DHT22;3747;48.628;9.058;2023-04-24T11:01:07;10.70;99.90
7411;DHT22;3747;48.628;9.058;2023-04-24T11:03:34;10.70;99.90
7411;DHT22;3747;48.628;9.058;2023-04-24T11:06:03;11.40;99.90
7411;DHT22;3747;48.628;9.058;2023-04-24T11:08:32;12.30;99.90
7411;DHT22;3747;48.628;9.058;2023-04-24T11:11:01;12.80;99.90
7411;DHT22;3747;48.628;9.058;2023-04-24T11:14:02;12.40;99.90
7411;DHT22;3747;48.628;9.058;2023-04-24T11:16:30;12.00;99.90
7411;DHT22;3747;48.628;9.058;2023-04-24T11:19:03;12.10;99.90
7411;DHT22;3747;48.628;9.058;2023-04-24T11:21:42;12.50;99.90
7411;DHT22;3747;48.628;9.058;2023-04-24T11:27:06;12.90;99.90
7411;DHT22;3747;48.628;9.058;2023-04-24T11:30:02;12.50;99.90
7411;DHT22;3747;48.628;9.058;2023-04-24T11:32:35;12.30;99.90
7411;DHT22;3747;48.628;9.058;2023-04-24T11:35:04;11.90;99.90
7411;DHT22;3747;48.628;9.058;2023-04-24T11:37:36;11.60;99.90
7411;DHT22;3747;48.628;9.058;2023-04-24T11:40:04;11.60;99.90
7411;DHT22;3747;48.628;9.058;2023-04-24T11:42:34;11.60;99.90
7411;DHT22;3747;48.628;9.058;2023-04-24T11:45:07;11.70;99.90
7411;DHT22;3747;48.628;9.058;2023-04-24T11:47:34;11.90;99.90
7411;DHT22;3747;48.628;9.058;2023-04-24T11:50:02;12.60;99.90
7411;DHT22;3747;48.628;9.058;2023-04-24T11:52:30;12.20;99.90
7411;DHT22;3747;48.628;9.058;2023-04-24T11:54:59;11.90;99.90
7411;DHT22;3747;48.628;9.058;2023-04-24T11:57:25;11.90;99.90
7411;DHT22;3747;48.628;9.058;2023-04-24T11:59:56;11.80;99.90
7411;DHT22;3747;48.628;9.058;2023-04-24T12:02:30;11.40;99.90
7411;DHT22;3747;48.628;9.058;2023-04-24T12:05:24;11.10;99.90
7411;DHT22;3747;48.628;9.058;2023-04-24T12:07:52;10.90;99.90
7411;DHT22;3747;48.628;9.058;2023-04-24T12:10:26;10.90;99.90
7411;DHT22;3747;48.628;9.058;2023-04-24T12:12:55;11.20;99.90
7411;DHT22;3747;48.628;9.058;2023-04-24T12:15:22;11.30;99.90
7411;DHT22;3747;48.628;9.058;2023-04-24T12:17:52;11.10;99.90
7411;DHT22;3747;48.628;9.058;2023-04-24T12:20:24;10.80;99.90
7411;DHT22;3747;48.628;9.058;2023-04-24T12:22:54;10.50;99.90
7411;DHT22;3747;48.628;9.058;2023-04-24T12:25:22;10.50;99.90
7411;DHT22;3747;48.628;9.058;2023-04-24T12:27:53;10.60;99.90
7411;DHT22;3747;48.628;9.058;2023-04-24T12:30:20;10.90;99.90
7411;DHT22;3747;48.628;9.058;2023-04-24T12:32:49;11.30;99.90
7411;DHT22;3747;48.628;9.058;2023-04-24T12:35:21;11.50;99.90
7411;DHT22;3747;48.628;9.058;2023-04-24T12:37:48;11.20;99.90
7411;DHT22;3747;48.628;9.058;2023-04-24T12:40:15;11.10;99.90
7411;DHT22;3747;48.628;9.058;2023-04-24T12:42:43;11.70;99.90
7411;DHT22;3747;48.628;9.058;2023-04-24T12:45:10;11.80;99.90
7411;DHT22;3747;48.628;9.058;2023-04-24T12:47:37;12.20;99.90
7411;DHT22;3747;48.628;9.058;2023-04-24T12:50:05;13.20;99.90
7411;DHT22;3747;48.628;9.058;2023-04-24T12:52:34;13.20;99.90
7411;DHT22;3747;48.628;9.058;2023-04-24T12:55:01;13.70;99.90
7411;DHT22;3747;48.628;9.058;2023-04-24T12:57:29;14.30;99.90
7411;DHT22;3747;48.628;9.058;2023-04-24T12:59:57;13.80;99.90
7411;DHT22;3747;48.628;9.058;2023-04-24T13:02:24;13.20;99.90
7411;DHT22;3747;48.628;9.058;2023-04-24T13:04:52;12.40;99.90
7411;DHT22;3747;48.628;9.058;2023-04-24T13:07:19;12.00;99.90
7411;DHT22;3747;48.628;9.058;2023-04-24T13:09:48;11.60;99.90
7411;DHT22;3747;48.628;9.058;2023-04-24T13:12:15;11.30;99.90
7411;DHT22;3747;48.628;9.058;2023-04-24T13:14:42;11.20;99.90
7411;DHT22;3747;48.628;9.058;2023-04-24T13:17:09;11.10;99.90
7411;DHT22;3747;48.628;9.058;2023-04-24T13:19:37;11.10;99.90
7411;DHT22;3747;48.628;9.058;2023-04-24T13:22:05;10.80;99.90
7411;DHT22;3747;48.628;9.058;2023-04-24T13:24:32;10.40;99.90
7411;DHT22;3747;48.628;9.058;2023-04-24T13:27:00;10.30;99.90
7411;DHT22;3747;48.628;9.058;2023-04-24T13:29:27;10.20;99.90
7411;DHT22;3747;48.628;9.058;2023-04-24T13:31:55;10.30;99.90
7411;DHT22;3747;48.628;9.058;2023-04-24T13:34:22;10.20;99.90
7411;DHT22;3747;48.628;9.058;2023-04-24T13:36:49;10.20;99.90
7411;DHT22;3747;48.628;9.058;2023-04-24T13:39:16;10.30;99.90
7411;DHT22;3747;48.628;9.058;2023-04-24T13:41:43;10.30;99.90
7411;DHT22;3747;48.628;9.058;2023-04-24T13:44:11;10.50;99.90
7411;DHT22;3747;48.628;9.058;2023-04-24T13:46:38;10.40;99.90
7411;DHT22;3747;48.628;9.058;2023-04-24T13:49:06;10.30;99.90
7411;DHT22;3747;48.628;9.058;2023-04-24T13:51:33;10.30;99.90
7411;DHT22;3747;48.628;9.058;2023-04-24T13:54:00;10.30;99.90
7411;DHT22;3747;48.628;9.058;2023-04-24T13:56:26;10.20;99.90
7411;DHT22;3747;48.628;9.058;2023-04-24T13:58:53;10.10;99.90
7411;DHT22;3747;48.628;9.058;2023-04-24T14:01:21;10.10;99.90
7411;DHT22;3747;48.628;9.058;2023-04-24T14:03:50;10.10;99.90
7411;DHT22;3747;48.628;9.058;2023-04-24T14:06:17;10.10;99.90
7411;DHT22;3747;48.628;9.058;2023-04-24T14:08:44;10.00;99.90
7411;DHT22;3747;48.628;9.058;2023-04-24T14:11:10;10.00;99.90
7411;DHT22;3747;48.628;9.058;2023-04-24T14:13:38;9.90;99.90
7411;DHT22;3747;48.628;9.058;2023-04-24T14:16:05;9.80;99.90
7411;DHT22;3747;48.628;9.058;2023-04-24T14:18:34;9.70;99.90
7411;DHT22;3747;48.628;9.058;2023-04-24T14:21:01;9.90;99.90
7411;DHT22;3747;48.628;9.058;2023-04-24T14:23:28;9.90;99.90
7411;DHT22;3747;48.628;9.058;2023-04-24T14:25:55;10.10;99.90
7411;DHT22;3747;48.628;9.058;2023-04-24T14:28:21;10.20;99.90
7411;DHT22;3747;48.628;9.058;2023-04-24T14:30:48;10.40;99.90
7411;DHT22;3747;48.628;9.058;2023-04-24T14:33:15;10.60;99.90
7411;DHT22;3747;48.628;9.058;2023-04-24T14:35:43;10.80;99.90
7411;DHT22;3747;48.628;9.058;2023-04-24T14:38:14;10.90;99.90
7411;DHT22;3747;48.628;9.058;2023-04-24T14:40:41;11.30;99.90
7411;DHT22;3747;48.628;9.058;2023-04-24T14:43:08;11.40;99.90
7411;DHT22;3747;48.628;9.058;2023-04-24T14:45:36;11.30;99.90
7411;DHT22;3747;48.628;9.058;2023-04-24T14:48:03;11.10;99.90
7411;DHT22;3747;48.628;9.058;2023-04-24T14:50:30;11.00;99.90
7411;DHT22;3747;48.628;9.058;2023-04-24T14:52:58;10.90;99.90
7411;DHT22;3747;48.628;9.058;2023-04-24T14:55:27;10.90;99.90
7411;DHT22;3747;48.628;9.058;2023-04-24T14:57:54;10.90;99.90
7411;DHT22;3747;48.628;9.058;2023-04-24T15:00:21;10.80;99.90
7411;DHT22;3747;48.628;9.058;2023-04-24T15:02:48;10.70;99.90
7411;DHT22;3747;48.628;9.058;2023-04-24T15:05:15;10.50;99.90
7411;DHT22;3747;48.628;9.058;2023-04-24T15:07:42;10.70;99.90
7411;DHT22;3747;48.628;9.058;2023-04-24T15:10:10;10.80;99.90
7411;DHT22;3747;48.628;9.058;2023-04-24T15:12:37;11.10;99.90
7411;DHT22;3747;48.628;9.058;2023-04-24T15:15:05;11.10;99.90
7411;DHT22;3747;48.628;9.058;2023-04-24T15:17:34;11.10;99.90
7411;DHT22;3747;48.628;9.058;2023-04-24T15:20:01;11.20;99.90
7411;DHT22;3747;48.628;9.058;2023-04-24T15:22:28;11.30;99.90
7411;DHT22;3747;48.628;9.058;2023-04-24T15:24:55;11.30;99.90
7411;DHT22;3747;48.628;9.058;2023-04-24T15:27:25;11.20;99.90
7411;DHT22;3747;48.628;9.058;2023-04-24T15:29:52;10.90;99.90
7411;DHT22;3747;48.628;9.058;2023-04-24T15:32:19;10.80;99.90
7411;DHT22;3747;48.628;9.058;2023-04-24T15:34:46;10.70;99.90
7411;DHT22;3747;48.628;9.058;2023-04-24T15:37:35;10.70;99.90
7411;DHT22;3747;48.628;9.058;2023-04-24T15:40:02;10.80;99.90
7411;DHT22;3747;48.628;9.058;2023-04-24T15:42:32;10.70;99.90
7411;DHT22;3747;48.628;9.058;2023-04-24T15:44:59;10.50;99.90
7411;DHT22;3747;48.628;9.058;2023-04-24T15:47:25;10.40;99.90
7411;DHT22;3747;48.628;9.058;2023-04-24T15:49:52;10.40;99.90
7411;DHT22;3747;48.628;9.058;2023-04-24T15:52:19;10.40;99.90
7411;DHT22;3747;48.628;9.058;2023-04-24T15:54:46;10.30;99.90
7411;DHT22;3747;48.628;9.058;2023-04-24T15:57:12;10.30;99.90
7411;DHT22;3747;48.628;9.058;2023-04-24T15:59:40;10.30;99.90
7411;DHT22;3747;48.628;9.058;2023-04-24T16:02:08;10.50;99.90
7411;DHT22;3747;48.628;9.058;2023-04-24T16:04:36;10.80;99.90
7411;DHT22;3747;48.628;9.058;2023-04-24T16:07:02;11.50;99.90
7411;DHT22;3747;48.628;9.058;2023-04-24T16:09:29;11.80;99.90
7411;DHT22;3747;48.628;9.058;2023-04-24T16:11:56;11.70;99.90
7411;DHT22;3747;48.628;9.058;2023-04-24T16:14:23;11.60;99.90
7411;DHT22;3747;48.628;9.058;2023-04-24T16:16:55;11.30;99.90